Time;durP1;ratioP1;P1;durP2;ratioP2;P2;SDS_P1;SDS_P2;PMS_P1;PMS_P2;Temp;Humidity;BMP_temperature;BMP_pressure;BME280_temperature;BME280_humidity;BME280_pressure;Samples;Min_cycle;Max_cycle;Signal;HPM_P1;HPM_P2
2022/09/14 00:04:18;;;;;;;4.62;2.60;;;;;;;18.25;52.49;99233.66;7606518;32;39877;-76
2022/09/14 00:08:34;;;;;;;7.43;3.15;;;;;;;18.07;53.00;99230.19;7607013;32;37921;-76
2022/09/14 00:12:50;;;;;;;8.70;3.05;;;;;;;17.98;52.40;99223.97;7606668;32;36967;-78
2022/09/14 00:17:06;;;;;;;7.43;3.20;;;;;;;17.99;51.93;99223.63;7606923;32;39920;-78
2022/09/14 00:21:23;;;;;;;5.87;3.25;;;;;;;18.05;51.63;99217.91;7606443;32;40756;-77
2022/09/14 00:25:39;;;;;;;10.75;3.35;;;;;;;18.16;51.27;99216.34;7606776;32;38736;-77
2022/09/14 00:29:55;;;;;;;7.03;3.60;;;;;;;18.26;51.08;99238.00;7606580;32;37072;-77
2022/09/14 00:34:13;;;;;;;8.38;3.42;;;;;;;17.77;52.94;99221.94;7606773;32;40226;-75
2022/09/14 00:38:29;;;;;;;8.43;4.03;;;;;;;17.98;52.27;99227.50;7606641;32;39030;-78
2022/09/14 00:42:45;;;;;;;6.47;3.65;;;;;;;18.10;52.13;99231.50;7606249;32;37957;-76
2022/09/14 00:47:01;;;;;;;7.05;3.78;;;;;;;17.83;52.49;99228.06;7606536;32;37322;-77
2022/09/14 00:51:20;;;;;;;8.35;3.50;;;;;;;17.76;52.74;99225.03;7606395;32;40183;-77
2022/09/14 00:55:36;;;;;;;7.05;3.75;;;;;;;17.71;52.74;99227.97;7593182;32;38858;-77
2022/09/14 00:59:52;;;;;;;7.75;3.80;;;;;;;17.78;52.48;99220.00;7606130;32;38521;-77
2022/09/14 01:04:08;;;;;;;8.70;3.90;;;;;;;17.79;52.38;99213.34;7593175;32;36810;-77
2022/09/14 01:09:00;;;;;;;9.27;3.70;;;;;;;17.65;52.84;99214.38;7606294;32;40073;-77
2022/09/14 01:13:33;;;;;;;11.90;3.75;;;;;;;17.68;52.81;99204.66;7604368;32;40870;-77
2022/09/14 01:18:16;;;;;;;9.83;3.67;;;;;;;17.44;53.49;99202.53;7592914;32;37829;-76
2022/09/14 01:22:51;;;;;;;6.37;3.33;;;;;;;17.33;53.94;99212.28;7818129;27;37181;-77
2022/09/14 01:27:07;;;;;;;5.35;3.53;;;;;;;17.24;54.50;99210.38;7605697;32;40267;-77
2022/09/14 01:31:37;;;;;;;5.50;3.45;;;;;;;17.30;54.83;99196.41;7605982;32;39921;-78
2022/09/14 01:35:56;;;;;;;7.97;3.10;;;;;;;17.21;55.11;99197.28;7606133;32;37839;-78
2022/09/14 01:40:31;;;;;;;9.60;3.62;;;;;;;17.13;55.64;99198.13;7593031;32;36804;-77
2022/09/14 01:44:51;;;;;;;5.85;3.15;;;;;;;17.35;55.03;99193.47;7606025;32;39481;-78
2022/09/14 01:49:12;;;;;;;4.78;2.90;;;;;;;17.26;55.10;99191.59;7606029;32;40008;-77
2022/09/14 01:53:39;;;;;;;6.85;2.92;;;;;;;17.55;54.52;99187.22;7606100;32;37702;-78
2022/09/14 01:58:05;;;;;;;6.18;3.20;;;;;;;17.55;54.59;99173.44;7593006;32;38073;-77
2022/09/14 02:02:36;;;;;;;11.30;3.53;;;;;;;17.52;54.89;99173.28;7592518;32;40209;-77
2022/09/14 02:06:52;;;;;;;5.10;3.05;;;;;;;17.51;55.05;99158.72;7592851;32;40613;-78
2022/09/14 02:11:08;;;;;;;8.77;4.12;;;;;;;17.26;55.60;99154.94;7605811;32;38457;-77
2022/09/14 02:15:27;;;;;;;7.07;3.97;;;;;;;17.22;55.15;99149.31;7592336;32;37590;-78
2022/09/14 02:19:52;;;;;;;9.10;3.58;;;;;;;17.10;55.34;99145.66;7605641;32;40308;-78
2022/09/14 02:24:09;;;;;;;9.45;4.25;;;;;;;17.12;55.53;99141.41;7605001;32;40093;-78
2022/09/14 02:28:25;;;;;;;6.78;3.58;;;;;;;17.31;54.64;99126.41;7591584;32;37842;-77
2022/09/14 02:33:07;;;;;;;8.15;3.50;;;;;;;16.97;55.67;99128.19;7605383;32;37065;-78
2022/09/14 02:37:51;;;;;;;7.82;3.87;;;;;;;16.96;55.96;99126.59;7604965;32;40078;-78
2022/09/14 02:42:12;;;;;;;4.62;3.33;;;;;;;17.00;56.76;99127.53;7605021;32;40627;-77
2022/09/14 02:46:34;;;;;;;5.45;3.47;;;;;;;16.87;57.67;99127.44;7591493;32;38557;-78
2022/09/14 02:51:01;;;;;;;5.30;2.85;;;;;;;16.92;57.65;99122.88;7605129;32;37300;-77
2022/09/14 02:55:19;;;;;;;5.00;3.35;;;;;;;16.89;58.25;99116.09;7592245;32;39462;-77
2022/09/14 02:59:35;;;;;;;6.95;3.67;;;;;;;17.01;58.16;99118.16;7591187;32;40058;-78
2022/09/14 03:03:51;;;;;;;7.03;3.70;;;;;;;16.81;58.91;99123.22;7604622;32;37990;-78
2022/09/14 03:08:09;;;;;;;7.40;3.53;;;;;;;17.02;58.47;99115.06;7591092;32;37219;-78
2022/09/14 03:12:28;;;;;;;5.22;3.45;;;;;;;16.83;58.96;99118.19;7604273;32;40052;-77
2022/09/14 03:16:44;;;;;;;5.93;3.42;;;;;;;16.94;59.11;99115.91;7604325;32;41167;-78
2022/09/14 03:21:14;;;;;;;7.32;3.45;;;;;;;17.04;56.51;99100.94;7604209;32;38587;-78
2022/09/14 03:25:34;;;;;;;4.35;3.10;;;;;;;16.84;56.35;99103.31;7578046;33;36766;-78
2022/09/14 03:29:50;;;;;;;4.18;2.85;;;;;;;16.77;57.11;99100.25;7596881;32;39915;-77
2022/09/14 03:34:09;;;;;;;8.52;3.35;;;;;;;16.79;56.33;99106.22;7603677;32;39740;-77
2022/09/14 03:38:28;;;;;;;7.75;3.35;;;;;;;16.83;57.56;99095.34;7606327;32;37834;-78
2022/09/14 03:42:47;;;;;;;6.75;3.50;;;;;;;16.96;58.09;99099.88;7607245;32;37128;-78
2022/09/14 03:47:03;;;;;;;7.45;3.55;;;;;;;16.94;58.79;99104.09;7607461;32;39157;-78
2022/09/14 03:51:19;;;;;;;6.57;3.17;;;;;;;17.03;58.26;99104.84;7607472;32;39935;-78
2022/09/14 03:55:35;;;;;;;6.75;3.35;;;;;;;17.03;58.09;99094.63;7607216;32;37837;-78
2022/09/14 03:59:51;;;;;;;5.95;3.20;;;;;;;17.01;57.62;99098.88;7607323;32;37020;-77
2022/09/14 04:04:07;;;;;;;4.35;2.62;;;;;;;16.94;57.49;99091.12;7607058;32;40044;-78
2022/09/14 04:08:23;;;;;;;5.82;3.30;;;;;;;17.01;56.01;99091.41;7606839;32;40235;-77
2022/09/14 04:12:39;;;;;;;6.65;3.30;;;;;;;17.10;54.92;99088.63;7607021;32;38671;-78
2022/09/14 04:16:55;;;;;;;6.07;2.85;;;;;;;17.14;54.75;99084.03;7606796;32;38006;-78
2022/09/14 04:21:16;;;;;;;7.55;3.28;;;;;;;17.05;54.14;99080.53;7607111;32;40129;-78
2022/09/14 04:25:32;;;;;;;3.47;2.58;;;;;;;17.11;53.90;99083.91;7606649;32;40044;-78
2022/09/14 04:29:49;;;;;;;6.65;2.62;;;;;;;17.10;53.91;99068.53;7606833;32;37706;-78
2022/09/14 04:34:05;;;;;;;4.53;3.00;;;;;;;17.26;53.10;99081.41;7606686;32;37796;-78
2022/09/14 04:38:21;;;;;;;6.25;3.30;;;;;;;17.14;53.56;99064.78;7606924;32;40077;-78
2022/09/14 04:42:37;;;;;;;4.68;3.05;;;;;;;17.16;53.54;99057.00;7606484;32;40873;-78
2022/09/14 04:46:53;;;;;;;6.05;3.30;;;;;;;17.16;53.13;99065.28;7606098;32;37988;-78
2022/09/14 04:51:17;;;;;;;6.82;3.00;;;;;;;17.07;54.13;99053.47;7606157;32;37084;-78
2022/09/14 04:55:34;;;;;;;6.35;2.90;;;;;;;17.29;53.67;99059.84;7606565;32;40240;-78
2022/09/14 04:59:50;;;;;;;7.03;2.92;;;;;;;17.20;54.23;99071.72;7606489;32;41161;-78
2022/09/14 05:04:07;;;;;;;6.47;3.10;;;;;;;17.08;55.04;99079.88;7606355;32;37914;-78
2022/09/14 05:08:23;;;;;;;7.35;3.28;;;;;;;17.51;55.20;99078.00;7606296;32;37020;-78
2022/09/14 05:12:39;;;;;;;4.87;2.97;;;;;;;17.19;55.19;99081.09;7606497;32;39310;-77
2022/09/14 05:17:00;;;;;;;7.45;3.15;;;;;;;17.21;55.16;99081.59;7606581;32;40753;-78
2022/09/14 05:21:17;;;;;;;5.95;3.10;;;;;;;17.40;54.82;99081.16;7606317;32;38867;-78
2022/09/14 05:25:33;;;;;;;7.62;3.40;;;;;;;17.53;54.60;99071.00;7605869;32;37095;-78
2022/09/14 05:29:49;;;;;;;8.40;3.28;;;;;;;17.58;54.39;99065.28;7606319;32;40183;-78
2022/09/14 05:34:05;;;;;;;4.90;2.90;;;;;;;17.22;55.06;99054.84;7606683;32;40900;-78
2022/09/14 05:38:21;;;;;;;5.62;3.15;;;;;;;17.47;54.21;99036.50;7606024;32;38171;-73
2022/09/14 05:42:38;;;;;;;8.88;3.83;;;;;;;17.47;53.47;99047.53;7606340;32;38961;-73
2022/09/14 05:46:53;;;;;;;9.65;4.47;;;;;;;17.25;56.99;99063.25;7605097;32;39538;-73
2022/09/14 05:51:15;;;;;;;10.48;3.40;;;;;;;16.88;59.50;99075.94;7625501;32;39983;-73
2022/09/14 05:55:31;;;;;;;6.35;3.37;;;;;;;17.58;57.64;99075.50;7597054;32;38663;-75
2022/09/14 05:59:47;;;;;;;8.23;3.25;;;;;;;17.71;57.50;99084.66;7605569;32;37107;-74
2022/09/14 06:04:03;;;;;;;8.95;3.70;;;;;;;17.95;57.15;99082.03;7605982;32;40025;-74
2022/09/14 06:08:19;;;;;;;9.20;4.40;;;;;;;17.48;58.30;99082.22;7605937;32;40001;-75
2022/09/14 06:12:35;;;;;;;9.75;4.18;;;;;;;17.78;57.24;99074.72;7605621;32;37935;-74
2022/09/14 06:16:51;;;;;;;6.65;3.85;;;;;;;18.00;56.27;99064.47;7604937;32;37154;-73
2022/09/14 06:21:08;;;;;;;9.75;3.67;;;;;;;18.05;56.71;99055.19;7605374;32;39357;-73
2022/09/14 06:25:24;;;;;;;10.07;4.32;;;;;;;17.33;59.02;99064.31;7605103;32;39884;-72
2022/09/14 06:29:40;;;;;;;8.98;3.55;;;;;;;17.47;58.41;99066.81;7605387;32;39031;-83
2022/09/14 06:33:56;;;;;;;8.13;3.67;;;;;;;18.09;57.16;99067.16;7605517;32;37044;-80
2022/09/14 06:38:13;;;;;;;8.57;3.62;;;;;;;17.84;56.89;99080.81;7605147;32;40437;-76
2022/09/14 06:42:29;;;;;;;8.65;3.53;;;;;;;17.82;57.21;99075.62;7605198;32;40270;-74
2022/09/14 06:46:45;;;;;;;9.40;3.70;;;;;;;18.33;55.97;99083.78;7604278;32;38045;-73
2022/09/14 06:51:36;;;;;;;8.35;3.55;;;;;;;18.44;55.05;99078.63;7605101;32;36914;-74
2022/09/14 06:55:52;;;;;;;10.20;3.62;;;;;;;18.54;54.95;99067.16;7588208;32;39297;-74
2022/09/14 07:00:08;;;;;;;6.80;3.25;;;;;;;18.44;55.10;99078.63;7604927;32;39860;-74
2022/09/14 07:04:25;;;;;;;7.50;3.20;;;;;;;18.84;53.84;99058.69;7598728;32;37976;-75
2022/09/14 07:08:41;;;;;;;8.70;2.92;;;;;;;18.81;55.24;99050.25;7603685;32;38024;-75
2022/09/14 07:13:00;;;;;;;5.28;3.33;;;;;;;17.97;56.69;99060.44;7602659;32;40124;-74
2022/09/14 07:17:16;;;;;;;8.15;3.10;;;;;;;18.07;56.66;99072.19;7581342;33;39691;-75
2022/09/14 07:21:33;;;;;;;8.85;2.95;;;;;;;18.40;52.37;99074.94;7581304;33;38629;-75
2022/09/14 07:25:59;;;;;;;6.40;2.97;;;;;;;18.71;52.69;99077.19;7594759;32;37829;-75
2022/09/14 07:30:15;;;;;;;6.28;2.70;;;;;;;19.08;50.62;99059.84;7607276;32;39650;-75
2022/09/14 07:34:31;;;;;;;7.70;2.72;;;;;;;19.13;50.34;99049.34;7606074;32;40032;-74
2022/09/14 07:38:47;;;;;;;5.57;2.67;;;;;;;19.26;50.84;99043.81;7606756;32;38688;-74
2022/09/14 07:43:08;;;;;;;4.00;2.70;;;;;;;19.31;51.83;99049.09;7605844;32;37129;-73
2022/09/14 07:47:23;;;;;;;6.70;3.33;;;;;;;19.47;50.23;99047.22;7606003;32;39696;-74
2022/09/14 07:51:39;;;;;;;5.65;2.80;;;;;;;19.52;50.03;99038.69;7606365;32;41006;-74
2022/09/14 07:55:59;;;;;;;4.12;2.60;;;;;;;19.65;50.75;99035.88;7605297;32;38785;-75
2022/09/14 08:00:15;;;;;;;10.27;3.17;;;;;;;19.96;49.12;99034.41;7605370;32;37134;-74
2022/09/14 08:04:32;;;;;;;5.20;2.95;;;;;;;20.01;48.31;99043.25;7605121;32;40104;-74
2022/09/14 08:08:51;;;;;;;6.25;2.95;;;;;;;20.19;47.57;99043.72;7604846;32;40025;-75
2022/09/14 08:13:07;;;;;;;5.05;3.08;;;;;;;20.27;47.68;99025.37;7605461;32;38124;-76
2022/09/14 08:17:22;;;;;;;4.97;2.80;;;;;;;20.01;48.59;99015.59;7605172;32;36975;-75
2022/09/14 08:21:38;;;;;;;9.43;3.50;;;;;;;19.85;48.90;99015.56;7604999;32;39449;-75
2022/09/14 08:26:09;;;;;;;8.48;3.37;;;;;;;20.00;48.56;99019.50;7601677;32;39710;-74
2022/09/14 08:30:25;;;;;;;7.18;3.45;;;;;;;20.03;49.64;99012.47;7577267;32;38014;-74
2022/09/14 08:34:41;;;;;;;8.15;3.58;;;;;;;20.45;49.11;99011.97;7606848;32;37392;-78
2022/09/14 08:43:20;;;;;;;7.12;3.83;;;;;;;20.56;48.38;99021.34;7606225;32;39468;-76
2022/09/14 08:47:38;;;;;;;5.85;3.67;;;;;;;20.59;48.27;99028.97;7593414;32;39436;-76
2022/09/14 08:51:54;;;;;;;9.60;4.00;;;;;;;20.50;48.69;99019.22;7606530;32;36013;-76
2022/09/14 08:56:24;;;;;;;8.75;4.20;;;;;;;20.49;49.15;99048.03;7593406;32;39941;-76
2022/09/14 09:01:01;;;;;;;11.82;4.40;;;;;;;20.75;48.02;99056.66;7606701;32;39840;-78
2022/09/14 09:05:28;;;;;;;11.12;3.92;;;;;;;20.77;49.51;99056.31;7605840;32;36305;-76
2022/09/14 09:09:49;;;;;;;11.52;3.95;;;;;;;21.08;49.86;99046.38;7605645;32;37375;-74
2022/09/14 09:14:16;;;;;;;10.23;4.05;;;;;;;21.51;48.54;99055.66;7606468;32;39531;-74
2022/09/14 09:18:48;;;;;;;7.70;3.87;;;;;;;21.21;47.55;99058.91;7593824;32;39988;-73
2022/09/14 09:23:17;;;;;;;8.65;4.15;;;;;;;21.22;47.65;99063.31;7592630;32;37700;-74
2022/09/14 09:27:33;;;;;;;10.95;3.90;;;;;;;20.96;50.53;99072.22;7605447;32;37894;-73
2022/09/14 09:31:52;;;;;;;23.67;15.68;;;;;;;20.78;53.36;99085.59;7606115;32;39341;-74
2022/09/14 09:36:11;;;;;;;35.15;24.63;;;;;;;21.10;53.32;99086.41;7591859;32;40929;-75
2022/09/14 09:40:34;;;;;;;10.38;4.80;;;;;;;21.12;53.97;99084.06;7593055;32;38059;-74
2022/09/14 09:45:00;;;;;;;12.52;4.90;;;;;;;21.10;51.17;99083.62;7619374;32;36928;-74
2022/09/14 09:49:33;;;;;;;12.05;5.30;;;;;;;21.39;49.20;99082.31;7607996;32;40296;-75
2022/09/14 09:54:02;;;;;;;8.60;4.10;;;;;;;21.64;49.95;99076.53;7603112;32;40045;-75
2022/09/14 09:58:29;;;;;;;10.35;4.50;;;;;;;21.89;50.35;99073.50;7593468;32;38687;-75
2022/09/14 10:02:45;;;;;;;8.63;4.00;;;;;;;21.89;50.49;99076.28;7605557;32;37251;-75
2022/09/14 10:07:03;;;;;;;14.05;8.77;;;;;;;22.16;48.86;99070.84;7592500;32;39446;-74
2022/09/14 10:11:32;;;;;;;10.02;4.50;;;;;;;22.40;48.61;99078.84;7605178;32;40744;-73
2022/09/14 10:15:48;;;;;;;12.73;3.70;;;;;;;22.42;47.82;99065.44;7592377;32;38613;-74
2022/09/14 10:20:05;;;;;;;8.85;4.20;;;;;;;22.44;48.12;99046.41;7605257;32;37086;-74
2022/09/14 10:24:21;;;;;;;6.65;3.50;;;;;;;22.44;47.34;99042.84;7591183;32;39635;-74
2022/09/14 10:28:39;;;;;;;6.55;3.37;;;;;;;22.54;47.21;99038.63;7591360;32;40799;-73
2022/09/14 10:33:01;;;;;;;7.05;3.65;;;;;;;22.44;48.49;99032.53;7604354;32;38758;-74
2022/09/14 10:37:46;;;;;;;9.32;3.75;;;;;;;22.52;47.47;99036.22;7604713;32;36899;-75
2022/09/14 10:42:21;;;;;;;6.87;3.80;;;;;;;22.49;47.11;99020.28;7604337;32;39270;-74
2022/09/14 10:46:52;;;;;;;12.40;4.03;;;;;;;22.96;47.37;99010.75;7604549;32;39952;-75
2022/09/14 10:51:10;;;;;;;12.55;4.53;;;;;;;23.17;47.10;98999.16;7622097;32;37920;-74
2022/09/14 10:55:48;;;;;;;9.07;4.05;;;;;;;23.23;46.22;99003.22;7612273;32;37745;-74
2022/09/14 11:00:22;;;;;;;6.93;3.72;;;;;;;23.36;46.29;99012.13;7604906;32;40332;-73
2022/09/14 11:05:15;;;;;;;8.95;4.07;;;;;;;23.55;45.54;99015.94;7591596;32;40781;-74
2022/09/14 11:10:07;;;;;;;9.63;4.30;;;;;;;23.59;46.24;99006.47;7619601;32;38600;-75
2022/09/14 11:14:47;;;;;;;9.52;4.43;;;;;;;23.01;47.55;98995.72;7529749;32;37821;-74
2022/09/14 11:19:11;;;;;;;9.40;3.95;;;;;;;23.63;46.17;98989.81;7604634;32;40183;-74
2022/09/14 11:24:08;;;;;;;7.28;4.00;;;;;;;24.12;45.45;98999.91;7590097;32;39992;-74
2022/09/14 11:28:37;;;;;;;11.77;4.37;;;;;;;24.21;44.90;98984.91;7602351;32;38375;-75
2022/09/14 11:33:02;;;;;;;9.50;3.67;;;;;;;24.36;45.09;98983.84;7602592;32;37328;-76
2022/09/14 11:37:21;;;;;;;6.80;3.40;;;;;;;24.43;44.07;98988.69;7603315;32;39053;-75
2022/09/14 11:41:54;;;;;;;12.05;4.00;;;;;;;24.15;43.92;98990.03;7590857;32;39971;-82
2022/09/14 11:46:15;;;;;;;10.43;4.35;;;;;;;24.32;43.93;98992.16;7590900;32;38679;-82
2022/09/14 11:50:32;;;;;;;8.55;4.30;;;;;;;23.89;45.25;99002.09;7589787;32;37148;-74
2022/09/14 11:54:49;;;;;;;8.80;4.72;;;;;;;24.12;44.77;98999.91;7602623;32;39183;-74
2022/09/14 11:59:06;;;;;;;7.25;4.10;;;;;;;24.04;45.52;98992.66;7602731;32;40163;-75
2022/09/14 12:03:42;;;;;;;7.62;3.65;;;;;;;23.84;45.30;98991.28;7605983;32;37753;-75
2022/09/14 12:08:24;;;;;;;9.40;3.83;;;;;;;24.22;45.32;98984.50;7605092;32;37820;-74
2022/09/14 12:12:51;;;;;;;12.32;4.05;;;;;;;24.28;44.89;98982.16;7598475;32;39439;-74
2022/09/14 12:17:16;;;;;;;11.18;3.47;;;;;;;24.52;44.83;98981.56;7606417;32;40727;-79
2022/09/14 12:21:53;;;;;;;5.80;3.30;;;;;;;25.11;43.87;98986.41;7605906;32;39180;-74
2022/09/14 12:26:14;;;;;;;6.57;3.53;;;;;;;25.37;43.28;98985.38;7605758;32;37156;-74
2022/09/14 12:30:40;;;;;;;5.85;3.10;;;;;;;25.23;43.55;98990.84;7604036;32;39849;-73
2022/09/14 12:35:33;;;;;;;9.40;3.37;;;;;;;25.43;43.19;98977.44;7604434;32;40032;-74
2022/09/14 12:40:22;;;;;;;;;;;;;;;25.71;42.72;98973.94;7606226;32;39569;-74
2022/09/14 12:44:44;;;;;;;8.38;2.92;;;;;;;26.11;42.21;98963.69;7587316;32;37540;-74
2022/09/14 12:49:02;;;;;;;11.03;3.63;;;;;;;26.54;41.41;98971.28;7592264;32;39377;-74
2022/09/14 12:53:28;;;;;;;5.53;3.05;;;;;;;27.04;40.84;98962.06;7598576;32;40644;-74
2022/09/14 12:57:53;;;;;;;7.03;3.15;;;;;;;27.71;39.78;98966.63;7605814;32;37815;-74
2022/09/14 13:02:43;;;;;;;6.12;2.90;;;;;;;28.62;38.39;98950.84;7605586;32;37275;-75
2022/09/14 13:07:01;;;;;;;8.25;3.50;;;;;;;28.89;37.42;98949.37;7604377;32;40086;-74
2022/09/14 13:11:23;;;;;;;8.80;2.80;;;;;;;29.02;36.10;98947.63;7600286;32;39896;-76
2022/09/14 13:15:52;;;;;;;5.57;2.53;;;;;;;28.89;36.15;98944.59;7603741;32;38686;-75
2022/09/14 13:20:17;;;;;;;6.37;2.90;;;;;;;28.72;37.65;98946.34;7592046;32;36907;-75
2022/09/14 13:24:42;;;;;;;6.53;2.95;;;;;;;28.05;38.61;98954.88;7596825;32;39116;-75
2022/09/14 13:29:00;;;;;;;5.60;2.72;;;;;;;27.91;39.02;98952.97;7592558;32;40130;-82
2022/09/14 13:33:17;;;;;;;5.62;3.03;;;;;;;27.47;39.38;98959.16;7593226;32;38040;-85
2022/09/14 13:37:36;;;;;;;7.57;3.35;;;;;;;27.59;39.51;98961.50;7606282;32;37032;-84
2022/09/14 13:41:53;;;;;;;9.77;2.83;;;;;;;27.20;39.85;98937.25;7606232;32;39982;-76
2022/09/14 13:46:13;;;;;;;10.50;3.22;;;;;;;26.92;40.19;98924.97;7605558;32;40066;-73
2022/09/14 13:50:34;;;;;;;8.43;2.95;;;;;;;26.96;40.79;98931.34;7578554;32;37722;-76
2022/09/14 13:55:06;;;;;;;6.35;2.62;;;;;;;27.03;40.93;98913.75;7604126;32;39921;-76
2022/09/14 13:59:22;;;;;;;8.25;3.35;;;;;;;27.31;39.24;98893.25;7595645;32;39031;-76
2022/09/14 14:03:48;;;;;;;5.47;2.92;;;;;;;27.23;39.49;98879.69;7605711;32;39774;-73
2022/09/14 14:08:25;;;;;;;6.87;3.25;;;;;;;27.33;40.22;98864.87;7592950;32;38064;-76
2022/09/14 14:12:41;;;;;;;5.45;2.75;;;;;;;27.62;39.13;98831.91;7594353;32;37250;-76
2022/09/14 14:17:28;;;;;;;9.48;2.85;;;;;;;26.81;41.15;98792.78;7592111;32;39369;-76
2022/09/14 14:21:44;;;;;;;7.72;3.30;;;;;;;26.90;40.91;98804.31;7604710;32;41171;-75
2022/09/14 14:26:13;;;;;;;9.63;3.83;;;;;;;26.70;42.01;98822.75;7605033;32;37917;-76
2022/09/14 14:30:32;;;;;;;8.65;3.50;;;;;;;26.66;41.86;98833.16;7592021;32;38218;-75
2022/09/14 14:34:48;;;;;;;10.88;3.70;;;;;;;26.70;41.40;98833.94;7605297;32;40075;-75
2022/09/14 14:39:04;;;;;;;10.05;4.12;;;;;;;25.98;43.43;98848.00;7604871;32;39926;-74
2022/09/14 14:43:24;;;;;;;10.25;4.28;;;;;;;26.61;41.30;98829.56;7605022;32;38703;-76
2022/09/14 14:47:40;;;;;;;7.93;3.12;;;;;;;26.50;42.07;98809.22;7604804;32;36646;-75
2022/09/14 14:51:56;;;;;;;8.65;3.75;;;;;;;26.51;42.10;98805.25;7591266;32;40063;-75
2022/09/14 14:56:12;;;;;;;6.22;3.10;;;;;;;26.34;42.26;98806.09;7604782;32;40721;-75
2022/09/14 15:00:31;;;;;;;6.55;3.45;;;;;;;26.04;43.51;98805.31;7604320;32;38664;-75
2022/09/14 15:04:47;;;;;;;8.32;3.47;;;;;;;26.00;43.91;98803.72;7604705;32;37898;-75
2022/09/14 15:09:08;;;;;;;11.25;4.15;;;;;;;26.06;43.71;98796.56;7604020;32;39444;-75
2022/09/14 15:13:24;;;;;;;10.55;4.53;;;;;;;26.34;43.60;98794.91;7604319;32;39898;-77
2022/09/14 15:17:41;;;;;;;6.53;3.25;;;;;;;26.52;42.61;98801.22;7604043;32;38532;-76
2022/09/14 15:21:57;;;;;;;6.45;3.12;;;;;;;26.57;42.75;98808.41;7604236;32;37273;-76
2022/09/14 15:26:16;;;;;;;8.80;2.92;;;;;;;26.52;42.90;98795.63;7603913;32;39839;-76
2022/09/14 15:30:32;;;;;;;8.40;2.97;;;;;;;26.27;43.37;98803.28;7603595;32;39933;-76
2022/09/14 15:34:48;;;;;;;5.87;3.03;;;;;;;26.04;44.01;98810.09;7606415;32;38574;-75
2022/09/14 15:39:06;;;;;;;5.85;2.85;;;;;;;25.93;44.08;98793.31;7606998;32;36870;-76
2022/09/14 15:43:22;;;;;;;6.93;2.97;;;;;;;26.02;44.40;98784.56;7607105;32;39261;-73
2022/09/14 15:47:40;;;;;;;6.12;2.67;;;;;;;25.93;44.72;98792.53;7606759;32;39876;-74
2022/09/14 15:51:56;;;;;;;5.10;2.97;;;;;;;26.17;43.82;98780.56;7593625;32;38762;-73
2022/09/14 15:56:14;;;;;;;7.37;2.90;;;;;;;25.95;44.54;98779.00;7606705;32;38089;-73
2022/09/14 16:00:31;;;;;;;10.07;3.55;;;;;;;26.38;43.86;98779.72;7607415;32;40509;-77
2022/09/14 16:04:46;;;;;;;10.07;2.83;;;;;;;27.30;41.58;98782.56;7605892;32;40020;-75
2022/09/14 16:09:05;;;;;;;8.05;2.85;;;;;;;29.31;37.78;98792.97;7606989;32;38473;-74
2022/09/14 16:13:21;;;;;;;8.85;3.05;;;;;;;31.08;33.36;98772.56;7594091;32;38980;-77
2022/09/14 16:17:37;;;;;;;5.95;2.78;;;;;;;30.93;33.69;98788.16;7607233;32;40109;-77
2022/09/14 16:21:53;;;;;;;7.97;2.97;;;;;;;31.19;33.56;98796.84;7607046;32;39920;-78
2022/09/14 16:26:14;;;;;;;4.95;2.58;;;;;;;31.29;32.80;98793.00;7606860;32;38667;-77
2022/09/14 16:30:30;;;;;;;3.30;2.30;;;;;;;31.07;33.49;98793.47;7607052;32;37792;-77
2022/09/14 16:34:46;;;;;;;5.65;2.40;;;;;;;29.86;35.74;98788.16;7606947;32;40654;-79
2022/09/14 16:39:04;;;;;;;7.30;2.78;;;;;;;28.76;37.82;98784.44;7606796;32;39660;-79
2022/09/14 16:43:21;;;;;;;15.27;3.25;;;;;;;27.87;39.83;98792.53;7593561;32;36872;-77
2022/09/14 16:47:38;;;;;;;7.15;2.70;;;;;;;27.03;41.69;98773.91;7606895;32;37191;-76
2022/09/14 16:51:54;;;;;;;7.12;3.10;;;;;;;26.30;43.32;98766.16;7606685;32;40245;-78
2022/09/14 16:56:14;;;;;;;7.85;3.10;;;;;;;25.77;44.77;98771.41;7606729;32;40645;-76
2022/09/14 17:00:30;;;;;;;5.65;2.60;;;;;;;25.39;45.74;98770.16;7606687;32;37888;-76
2022/09/14 17:04:46;;;;;;;8.70;3.28;;;;;;;25.10;46.17;98759.75;7606769;32;36974;-76
2022/09/14 17:09:08;;;;;;;10.45;3.17;;;;;;;24.94;46.50;98762.09;7606586;32;40080;-76
2022/09/14 17:13:25;;;;;;;8.17;3.10;;;;;;;24.77;47.00;98760.03;7606530;32;39759;-76
2022/09/14 17:17:41;;;;;;;5.65;2.92;;;;;;;24.37;48.20;98752.28;7606408;32;38615;-75
2022/09/14 17:21:57;;;;;;;7.18;3.10;;;;;;;24.32;48.21;98755.44;7606521;32;37342;-78
2022/09/14 17:26:16;;;;;;;3.78;2.50;;;;;;;24.13;48.76;98752.94;7606399;32;39345;-75
2022/09/14 17:30:33;;;;;;;11.60;3.60;;;;;;;23.92;49.39;98740.50;7606224;32;39727;-77
2022/09/14 17:34:48;;;;;;;7.82;3.08;;;;;;;23.61;50.35;98750.13;7606101;32;38245;-76
2022/09/14 17:39:06;;;;;;;13.50;3.45;;;;;;;23.73;49.99;98735.13;7592707;32;36839;-75
2022/09/14 17:43:27;;;;;;;10.17;3.07;;;;;;;23.34;51.17;98735.63;7606197;32;40283;-75
2022/09/14 17:47:43;;;;;;;9.85;2.87;;;;;;;23.35;51.03;98731.62;7605978;32;41017;-75
2022/09/14 17:52:00;;;;;;;6.72;3.12;;;;;;;23.02;52.06;98733.28;7605889;32;37876;-74
2022/09/14 17:56:19;;;;;;;6.72;3.92;;;;;;;22.81;52.71;98719.97;7605155;32;38606;-74
2022/09/14 18:00:37;;;;;;;7.53;3.75;;;;;;;22.73;53.00;98721.06;7605781;32;39320;-76
2022/09/14 18:04:59;;;;;;;;;;;;;;;22.66;53.24;98719.81;7604381;32;40844;-75
2022/09/14 18:09:21;;;;;;;9.60;4.10;;;;;;;22.74;53.13;98725.44;7598897;32;38158;-76
2022/09/14 18:13:44;;;;;;;11.65;4.57;;;;;;;22.41;54.23;98727.81;7604451;32;36860;-75
2022/09/14 18:18:00;;;;;;;10.35;4.72;;;;;;;22.40;54.28;98720.66;7603655;32;40024;-75
2022/09/14 18:22:17;;;;;;;8.13;3.85;;;;;;;22.48;53.60;98736.25;7605211;32;40660;-75
2022/09/14 18:26:33;;;;;;;8.93;4.00;;;;;;;22.40;53.76;98726.22;7604287;32;37944;-73
2022/09/14 18:30:57;;;;;;;7.68;3.25;;;;;;;22.17;54.63;98725.50;7623208;32;37287;-75
2022/09/14 18:35:14;;;;;;;5.10;3.10;;;;;;;22.16;54.61;98698.91;7611143;32;39356;-75
2022/09/14 18:39:29;;;;;;;8.10;3.67;;;;;;;22.20;54.50;98716.44;7605169;32;40788;-75
2022/09/14 18:43:49;;;;;;;9.30;4.00;;;;;;;22.15;54.56;98706.44;7604519;32;37710;-74
2022/09/14 18:48:05;;;;;;;4.68;3.00;;;;;;;22.15;54.75;98730.63;7604708;32;38063;-76
2022/09/14 18:52:21;;;;;;;9.05;3.20;;;;;;;22.29;53.97;98722.53;7626026;32;39957;-76
2022/09/14 18:56:37;;;;;;;6.68;3.45;;;;;;;22.05;54.57;98726.53;7604743;32;39928;-76
2022/09/14 19:00:55;;;;;;;5.57;3.22;;;;;;;22.13;54.60;98742.91;7608529;32;38616;-74
2022/09/14 19:05:11;;;;;;;7.10;3.35;;;;;;;22.03;55.25;98738.00;7605585;32;36978;-76
2022/09/14 19:09:27;;;;;;;11.00;6.70;;;;;;;21.82;55.79;98743.19;7606133;32;40176;-75
2022/09/14 19:13:44;;;;;;;8.35;4.45;;;;;;;22.05;55.26;98721.75;7607606;32;40159;-75
2022/09/14 19:18:00;;;;;;;9.70;3.85;;;;;;;21.86;55.86;98731.00;7607242;32;38603;-75
2022/09/14 19:22:16;;;;;;;7.25;3.62;;;;;;;21.65;56.55;98714.84;7609090;32;37754;-73
2022/09/14 19:26:37;;;;;;;7.72;3.60;;;;;;;21.56;56.94;98708.75;7607259;32;39452;-76
2022/09/14 19:31:03;;;;;;;7.75;4.03;;;;;;;21.45;57.20;98705.75;7606325;32;39685;-75
2022/09/14 19:35:20;;;;;;;7.25;3.50;;;;;;;21.45;57.19;98702.19;7607193;32;38611;-75
2022/09/14 19:39:36;;;;;;;9.43;3.90;;;;;;;21.36;57.43;98696.91;7606457;32;37884;-76
2022/09/14 19:43:52;;;;;;;6.90;4.18;;;;;;;21.34;57.35;98696.47;7603858;32;39049;-74
2022/09/14 19:48:08;;;;;;;8.10;4.10;;;;;;;21.42;56.94;98691.84;7605807;32;40602;-75
2022/09/14 19:52:24;;;;;;;7.25;5.03;;;;;;;21.31;57.43;98686.12;7605814;32;38562;-75
2022/09/14 19:56:40;;;;;;;9.07;4.50;;;;;;;21.35;57.38;98685.03;7606126;32;37893;-74
2022/09/14 20:00:57;;;;;;;9.93;4.30;;;;;;;21.09;58.27;98674.66;7606511;32;39149;-75
2022/09/14 20:05:14;;;;;;;8.02;3.83;;;;;;;21.25;57.57;98679.28;7604166;32;39929;-75
2022/09/14 20:09:30;;;;;;;6.35;4.20;;;;;;;21.31;57.24;98681.38;7605888;32;39352;-75
2022/09/14 20:13:49;;;;;;;11.12;4.18;;;;;;;20.93;58.65;98682.31;7605140;32;37257;-74
2022/09/14 20:18:05;;;;;;;5.90;3.67;;;;;;;21.11;57.88;98680.66;7606869;32;39336;-75
2022/09/14 20:22:22;;;;;;;7.85;4.28;;;;;;;21.30;56.99;98674.25;7607013;32;39882;-73
2022/09/14 20:26:38;;;;;;;9.73;4.70;;;;;;;21.03;58.18;98664.28;7604993;32;38069;-75
2022/09/14 20:30:58;;;;;;;8.50;4.72;;;;;;;20.43;60.29;98677.38;7606763;32;37155;-75